sensor_id;sensor_type;location;lat;lon;timestamp;temperature;humidity
1205;DHT22;592;48.764;9.174;2022-08-01T00:01:13;21.60;84.40
1205;DHT22;592;48.764;9.174;2022-08-01T00:03:39;21.60;83.80
1205;DHT22;592;48.764;9.174;2022-08-01T00:06:06;21.60;84.50
1205;DHT22;592;48.764;9.174;2022-08-01T00:08:33;21.60;84.00
1205;DHT22;592;48.764;9.174;2022-08-01T00:11:00;21.60;84.10
1205;DHT22;592;48.764;9.174;2022-08-01T00:13:28;21.60;84.00
1205;DHT22;592;48.764;9.174;2022-08-01T00:15:54;21.60;84.20
1205;DHT22;592;48.764;9.174;2022-08-01T00:18:21;21.50;84.50
1205;DHT22;592;48.764;9.174;2022-08-01T00:20:48;21.50;85.80
1205;DHT22;592;48.764;9.174;2022-08-01T00:23:14;21.40;85.20
1205;DHT22;592;48.764;9.174;2022-08-01T00:25:41;21.40;84.70
1205;DHT22;592;48.764;9.174;2022-08-01T00:28:08;21.40;84.70
1205;DHT22;592;48.764;9.174;2022-08-01T00:30:36;21.50;84.20
1205;DHT22;592;48.764;9.174;2022-08-01T00:33:03;21.50;84.50
1205;DHT22;592;48.764;9.174;2022-08-01T00:35:30;21.40;84.80
1205;DHT22;592;48.764;9.174;2022-08-01T00:37:56;21.40;84.30
1205;DHT22;592;48.764;9.174;2022-08-01T00:40:23;21.40;84.80
1205;DHT22;592;48.764;9.174;2022-08-01T00:42:50;21.40;84.30
1205;DHT22;592;48.764;9.174;2022-08-01T00:45:16;21.40;84.30
1205;DHT22;592;48.764;9.174;2022-08-01T00:47:45;21.40;84.70
1205;DHT22;592;48.764;9.174;2022-08-01T00:50:12;21.30;86.50
1205;DHT22;592;48.764;9.174;2022-08-01T00:52:40;21.30;86.30
1205;DHT22;592;48.764;9.174;2022-08-01T00:55:08;21.20;86.20
1205;DHT22;592;48.764;9.174;2022-08-01T00:57:35;21.30;86.30
1205;DHT22;592;48.764;9.174;2022-08-01T01:00:03;21.10;86.90
1205;DHT22;592;48.764;9.174;2022-08-01T01:02:31;21.20;86.80
1205;DHT22;592;48.764;9.174;2022-08-01T01:05:00;21.10;87.50
1205;DHT22;592;48.764;9.174;2022-08-01T01:07:34;21.10;87.20
1205;DHT22;592;48.764;9.174;2022-08-01T01:10:05;21.10;87.60
1205;DHT22;592;48.764;9.174;2022-08-01T01:12:37;21.10;87.70
1205;DHT22;592;48.764;9.174;2022-08-01T01:15:07;21.10;87.60
1205;DHT22;592;48.764;9.174;2022-08-01T01:17:37;21.10;87.30
1205;DHT22;592;48.764;9.174;2022-08-01T01:20:10;21.30;87.90
1205;DHT22;592;48.764;9.174;2022-08-01T01:22:47;21.00;88.10
1205;DHT22;592;48.764;9.174;2022-08-01T01:25:31;20.90;88.90
1205;DHT22;592;48.764;9.174;2022-08-01T01:28:06;20.80;89.80
1205;DHT22;592;48.764;9.174;2022-08-01T01:30:37;20.60;89.70
1205;DHT22;592;48.764;9.174;2022-08-01T01:33:06;20.60;89.70
1205;DHT22;592;48.764;9.174;2022-08-01T01:35:37;20.50;90.30
1205;DHT22;592;48.764;9.174;2022-08-01T01:38:09;20.40;90.40
1205;DHT22;592;48.764;9.174;2022-08-01T01:40:37;20.40;90.50
1205;DHT22;592;48.764;9.174;2022-08-01T01:43:04;20.40;90.60
1205;DHT22;592;48.764;9.174;2022-08-01T01:45:37;20.40;90.80
1205;DHT22;592;48.764;9.174;2022-08-01T01:48:06;20.30;90.90
1205;DHT22;592;48.764;9.174;2022-08-01T01:50:34;20.30;90.80
1205;DHT22;592;48.764;9.174;2022-08-01T01:53:02;20.40;90.60
1205;DHT22;592;48.764;9.174;2022-08-01T01:55:30;20.40;91.20
1205;DHT22;592;48.764;9.174;2022-08-01T01:57:59;20.40;90.90
1205;DHT22;592;48.764;9.174;2022-08-01T02:00:27;20.30;91.40
1205;DHT22;592;48.764;9.174;2022-08-01T02:02:57;20.30;90.90
1205;DHT22;592;48.764;9.174;2022-08-01T02:05:26;20.30;91.50
1205;DHT22;592;48.764;9.174;2022-08-01T02:07:54;20.30;91.40
1205;DHT22;592;48.764;9.174;2022-08-01T02:10:22;20.30;91.60
1205;DHT22;592;48.764;9.174;2022-08-01T02:12:51;20.20;91.60
1205;DHT22;592;48.764;9.174;2022-08-01T02:15:18;20.20;91.60
1205;DHT22;592;48.764;9.174;2022-08-01T02:17:48;20.10;91.70
1205;DHT22;592;48.764;9.174;2022-08-01T02:20:17;20.10;91.80
1205;DHT22;592;48.764;9.174;2022-08-01T02:22:46;20.10;91.90
1205;DHT22;592;48.764;9.174;2022-08-01T02:25:19;20.10;91.80
1205;DHT22;592;48.764;9.174;2022-08-01T02:27:52;20.00;92.00
1205;DHT22;592;48.764;9.174;2022-08-01T02:30:23;20.00;91.80
1205;DHT22;592;48.764;9.174;2022-08-01T02:32:53;20.10;91.80
1205;DHT22;592;48.764;9.174;2022-08-01T02:35:27;20.00;92.00
1205;DHT22;592;48.764;9.174;2022-08-01T02:37:55;20.00;92.10
1205;DHT22;592;48.764;9.174;2022-08-01T02:40:24;19.90;92.50
1205;DHT22;592;48.764;9.174;2022-08-01T02:42:54;20.00;92.50
1205;DHT22;592;48.764;9.174;2022-08-01T02:45:25;20.00;92.30
1205;DHT22;592;48.764;9.174;2022-08-01T02:47:55;20.00;92.30
1205;DHT22;592;48.764;9.174;2022-08-01T02:50:25;20.00;91.80
1205;DHT22;592;48.764;9.174;2022-08-01T02:52:54;20.00;92.50
1205;DHT22;592;48.764;9.174;2022-08-01T02:55:21;20.00;92.30
1205;DHT22;592;48.764;9.174;2022-08-01T02:57:49;20.00;92.30
1205;DHT22;592;48.764;9.174;2022-08-01T03:00:18;20.00;92.70
1205;DHT22;592;48.764;9.174;2022-08-01T03:02:46;20.00;92.70
1205;DHT22;592;48.764;9.174;2022-08-01T03:05:17;19.90;93.00
1205;DHT22;592;48.764;9.174;2022-08-01T03:07:45;19.90;93.30
1205;DHT22;592;48.764;9.174;2022-08-01T03:10:14;19.80;93.40
1205;DHT22;592;48.764;9.174;2022-08-01T03:12:42;19.80;93.40
1205;DHT22;592;48.764;9.174;2022-08-01T03:15:11;19.70;93.60
1205;DHT22;592;48.764;9.174;2022-08-01T03:17:41;19.70;93.80
1205;DHT22;592;48.764;9.174;2022-08-01T03:20:11;19.70;93.90
1205;DHT22;592;48.764;9.174;2022-08-01T03:22:39;19.70;93.90
1205;DHT22;592;48.764;9.174;2022-08-01T03:25:09;19.70;93.90
1205;DHT22;592;48.764;9.174;2022-08-01T03:27:36;19.70;93.90
1205;DHT22;592;48.764;9.174;2022-08-01T03:30:05;19.70;93.90
1205;DHT22;592;48.764;9.174;2022-08-01T03:32:32;19.70;94.20
1205;DHT22;592;48.764;9.174;2022-08-01T03:34:59;19.70;94.00
1205;DHT22;592;48.764;9.174;2022-08-01T03:37:28;19.70;93.90
1205;DHT22;592;48.764;9.174;2022-08-01T03:39:58;19.70;93.90
1205;DHT22;592;48.764;9.174;2022-08-01T03:42:32;19.70;94.20
1205;DHT22;592;48.764;9.174;2022-08-01T03:45:02;19.60;94.40
1205;DHT22;592;48.764;9.174;2022-08-01T03:47:32;19.60;94.40
1205;DHT22;592;48.764;9.174;2022-08-01T03:50:01;19.50;95.00
1205;DHT22;592;48.764;9.174;2022-08-01T03:52:30;19.60;94.30
1205;DHT22;592;48.764;9.174;2022-08-01T03:54:59;19.60;94.50
1205;DHT22;592;48.764;9.174;2022-08-01T03:57:29;19.60;94.30
1205;DHT22;592;48.764;9.174;2022-08-01T03:59:57;19.60;94.70
1205;DHT22;592;48.764;9.174;2022-08-01T04:02:25;19.70;94.50
1205;DHT22;592;48.764;9.174;2022-08-01T04:04:53;19.70;94.60
1205;DHT22;592;48.764;9.174;2022-08-01T04:07:21;19.70;94.50
1205;DHT22;592;48.764;9.174;2022-08-01T04:09:49;19.70;94.60
1205;DHT22;592;48.764;9.174;2022-08-01T04:12:15;19.60;95.00
1205;DHT22;592;48.764;9.174;2022-08-01T04:14:43;19.60;95.00
1205;DHT22;592;48.764;9.174;2022-08-01T04:17:10;19.60;95.10
1205;DHT22;592;48.764;9.174;2022-08-01T04:19:37;19.60;95.30
1205;DHT22;592;48.764;9.174;2022-08-01T04:22:04;19.70;95.10
1205;DHT22;592;48.764;9.174;2022-08-01T04:24:32;19.70;95.30
1205;DHT22;592;48.764;9.174;2022-08-01T04:27:01;19.90;95.10
1205;DHT22;592;48.764;9.174;2022-08-01T04:29:31;19.90;95.10
1205;DHT22;592;48.764;9.174;2022-08-01T04:32:01;20.00;95.10
1205;DHT22;592;48.764;9.174;2022-08-01T04:34:30;20.10;95.00
1205;DHT22;592;48.764;9.174;2022-08-01T04:36:57;20.10;94.80
1205;DHT22;592;48.764;9.174;2022-08-01T04:39:27;20.10;95.00
1205;DHT22;592;48.764;9.174;2022-08-01T04:41:56;20.20;95.20
1205;DHT22;592;48.764;9.174;2022-08-01T04:44:24;20.10;95.20
1205;DHT22;592;48.764;9.174;2022-08-01T04:46:53;20.20;95.20
1205;DHT22;592;48.764;9.174;2022-08-01T04:49:23;20.50;94.70
1205;DHT22;592;48.764;9.174;2022-08-01T04:51:51;20.60;94.70
1205;DHT22;592;48.764;9.174;2022-08-01T04:54:23;20.70;94.80
1205;DHT22;592;48.764;9.174;2022-08-01T04:56:50;20.80;94.50
1205;DHT22;592;48.764;9.174;2022-08-01T04:59:18;20.90;94.50
1205;DHT22;592;48.764;9.174;2022-08-01T05:02:03;21.10;94.40
1205;DHT22;592;48.764;9.174;2022-08-01T05:04:31;21.30;94.30
1205;DHT22;592;48.764;9.174;2022-08-01T05:06:57;21.40;94.40
1205;DHT22;592;48.764;9.174;2022-08-01T05:09:24;21.40;94.40
1205;DHT22;592;48.764;9.174;2022-08-01T05:11:51;21.30;94.40
1205;DHT22;592;48.764;9.174;2022-08-01T05:14:17;21.20;94.70
1205;DHT22;592;48.764;9.174;2022-08-01T05:16:44;21.40;94.50
1205;DHT22;592;48.764;9.174;2022-08-01T05:19:11;21.40;94.70
1205;DHT22;592;48.764;9.174;2022-08-01T05:21:39;21.50;94.70
1205;DHT22;592;48.764;9.174;2022-08-01T05:24:06;21.80;94.80
1205;DHT22;592;48.764;9.174;2022-08-01T05:26:32;21.90;94.30
1205;DHT22;592;48.764;9.174;2022-08-01T05:28:59;21.90;94.30
1205;DHT22;592;48.764;9.174;2022-08-01T05:31:26;21.90;94.40
1205;DHT22;592;48.764;9.174;2022-08-01T05:33:52;22.00;94.10
1205;DHT22;592;48.764;9.174;2022-08-01T05:36:19;22.10;94.00
1205;DHT22;592;48.764;9.174;2022-08-01T05:38:47;22.10;94.20
1205;DHT22;592;48.764;9.174;2022-08-01T05:41:14;22.20;94.40
1205;DHT22;592;48.764;9.174;2022-08-01T05:43:41;22.40;94.40
1205;DHT22;592;48.764;9.174;2022-08-01T05:46:07;22.50;94.30
1205;DHT22;592;48.764;9.174;2022-08-01T05:48:34;22.50;94.20
1205;DHT22;592;48.764;9.174;2022-08-01T05:51:01;22.60;94.30
1205;DHT22;592;48.764;9.174;2022-08-01T05:53:28;22.60;94.40
1205;DHT22;592;48.764;9.174;2022-08-01T05:55:56;22.70;94.40
1205;DHT22;592;48.764;9.174;2022-08-01T05:58:23;22.90;94.10
1205;DHT22;592;48.764;9.174;2022-08-01T06:03:25;23.20;93.80
1205;DHT22;592;48.764;9.174;2022-08-01T06:05:51;22.90;93.70
1205;DHT22;592;48.764;9.174;2022-08-01T06:10:55;23.20;93.70
1205;DHT22;592;48.764;9.174;2022-08-01T06:13:22;23.40;93.70
1205;DHT22;592;48.764;9.174;2022-08-01T06:15:49;23.20;93.70
1205;DHT22;592;48.764;9.174;2022-08-01T06:18:16;23.00;94.00
1205;DHT22;592;48.764;9.174;2022-08-01T06:20:43;23.10;94.10
1205;DHT22;592;48.764;9.174;2022-08-01T06:23:11;23.20;94.10
1205;DHT22;592;48.764;9.174;2022-08-01T06:25:38;23.30;94.20
1205;DHT22;592;48.764;9.174;2022-08-01T06:28:07;23.30;94.00
1205;DHT22;592;48.764;9.174;2022-08-01T06:30:33;23.50;93.90
1205;DHT22;592;48.764;9.174;2022-08-01T06:33:00;23.70;93.90
1205;DHT22;592;48.764;9.174;2022-08-01T06:35:28;23.70;93.60
1205;DHT22;592;48.764;9.174;2022-08-01T06:37:56;23.90;93.70
1205;DHT22;592;48.764;9.174;2022-08-01T06:40:23;24.00;93.60
1205;DHT22;592;48.764;9.174;2022-08-01T06:42:50;23.60;93.50
1205;DHT22;592;48.764;9.174;2022-08-01T06:45:18;23.30;93.80
1205;DHT22;592;48.764;9.174;2022-08-01T06:47:47;23.50;93.80
1205;DHT22;592;48.764;9.174;2022-08-01T06:50:14;23.80;93.70
1205;DHT22;592;48.764;9.174;2022-08-01T06:52:41;23.90;93.40
1205;DHT22;592;48.764;9.174;2022-08-01T06:55:08;23.80;93.40
1205;DHT22;592;48.764;9.174;2022-08-01T06:57:36;23.80;93.30
1205;DHT22;592;48.764;9.174;2022-08-01T07:00:04;23.90;93.30
1205;DHT22;592;48.764;9.174;2022-08-01T07:02:34;23.80;93.40
1205;DHT22;592;48.764;9.174;2022-08-01T07:05:03;24.10;93.30
1205;DHT22;592;48.764;9.174;2022-08-01T07:07:30;24.10;92.90
1205;DHT22;592;48.764;9.174;2022-08-01T07:09:56;24.20;92.90
1205;DHT22;592;48.764;9.174;2022-08-01T07:12:23;24.20;92.60
1205;DHT22;592;48.764;9.174;2022-08-01T07:14:50;24.30;92.70
1205;DHT22;592;48.764;9.174;2022-08-01T07:17:17;24.40;92.80
1205;DHT22;592;48.764;9.174;2022-08-01T07:19:47;24.20;92.70
1205;DHT22;592;48.764;9.174;2022-08-01T07:22:14;24.20;92.70
1205;DHT22;592;48.764;9.174;2022-08-01T07:24:41;24.40;92.60
1205;DHT22;592;48.764;9.174;2022-08-01T07:27:08;24.60;92.40
1205;DHT22;592;48.764;9.174;2022-08-01T07:29:36;24.90;92.30
1205;DHT22;592;48.764;9.174;2022-08-01T07:32:03;24.70;91.80
1205;DHT22;592;48.764;9.174;2022-08-01T07:34:30;24.70;91.90
1205;DHT22;592;48.764;9.174;2022-08-01T07:36:58;25.00;92.00
1205;DHT22;592;48.764;9.174;2022-08-01T07:39:25;25.10;91.80
1205;DHT22;592;48.764;9.174;2022-08-01T07:41:51;24.90;91.20
1205;DHT22;592;48.764;9.174;2022-08-01T07:44:18;24.80;91.40
1205;DHT22;592;48.764;9.174;2022-08-01T07:46:45;25.10;91.50
1205;DHT22;592;48.764;9.174;2022-08-01T07:49:11;25.00;90.90
1205;DHT22;592;48.764;9.174;2022-08-01T07:51:38;24.70;91.10
1205;DHT22;592;48.764;9.174;2022-08-01T07:54:06;24.90;91.30
1205;DHT22;592;48.764;9.174;2022-08-01T07:56:33;25.00;91.20
1205;DHT22;592;48.764;9.174;2022-08-01T07:59:00;25.10;91.20
1205;DHT22;592;48.764;9.174;2022-08-01T08:01:26;24.70;91.30
1205;DHT22;592;48.764;9.174;2022-08-01T08:03:53;24.80;91.30
1205;DHT22;592;48.764;9.174;2022-08-01T08:06:20;25.30;91.20
1205;DHT22;592;48.764;9.174;2022-08-01T08:08:47;25.40;90.90
1205;DHT22;592;48.764;9.174;2022-08-01T08:11:15;25.60;90.10
1205;DHT22;592;48.764;9.174;2022-08-01T08:13:41;25.90;90.40
1205;DHT22;592;48.764;9.174;2022-08-01T08:16:08;26.10;90.00
1205;DHT22;592;48.764;9.174;2022-08-01T08:18:35;26.40;90.00
1205;DHT22;592;48.764;9.174;2022-08-01T08:21:03;26.00;89.50
1205;DHT22;592;48.764;9.174;2022-08-01T08:23:29;25.70;90.10
1205;DHT22;592;48.764;9.174;2022-08-01T08:26:15;25.60;90.10
1205;DHT22;592;48.764;9.174;2022-08-01T08:28:42;25.60;90.30
1205;DHT22;592;48.764;9.174;2022-08-01T08:31:08;25.80;90.40
1205;DHT22;592;48.764;9.174;2022-08-01T08:33:35;25.80;90.20
1205;DHT22;592;48.764;9.174;2022-08-01T08:36:02;26.20;90.20
1205;DHT22;592;48.764;9.174;2022-08-01T08:38:28;26.30;89.90
1205;DHT22;592;48.764;9.174;2022-08-01T08:40:56;26.10;89.60
1205;DHT22;592;48.764;9.174;2022-08-01T08:43:25;25.90;90.00
1205;DHT22;592;48.764;9.174;2022-08-01T08:45:52;26.00;90.00
1205;DHT22;592;48.764;9.174;2022-08-01T08:48:19;25.80;89.90
1205;DHT22;592;48.764;9.174;2022-08-01T08:50:46;25.90;90.10
1205;DHT22;592;48.764;9.174;2022-08-01T08:53:14;26.00;90.00
1205;DHT22;592;48.764;9.174;2022-08-01T08:55:42;26.00;90.20
1205;DHT22;592;48.764;9.174;2022-08-01T08:58:10;26.00;90.20
1205;DHT22;592;48.764;9.174;2022-08-01T09:00:40;26.00;90.10
1205;DHT22;592;48.764;9.174;2022-08-01T09:03:07;26.00;90.40
1205;DHT22;592;48.764;9.174;2022-08-01T09:05:33;25.90;90.60
1205;DHT22;592;48.764;9.174;2022-08-01T09:08:00;26.10;90.10
1205;DHT22;592;48.764;9.174;2022-08-01T09:10:27;26.20;90.30
1205;DHT22;592;48.764;9.174;2022-08-01T09:13:08;26.40;90.20
1205;DHT22;592;48.764;9.174;2022-08-01T09:15:42;26.40;90.10
1205;DHT22;592;48.764;9.174;2022-08-01T09:18:25;26.40;89.50
1205;DHT22;592;48.764;9.174;2022-08-01T09:21:07;26.20;89.70
1205;DHT22;592;48.764;9.174;2022-08-01T09:23:35;26.30;89.70
1205;DHT22;592;48.764;9.174;2022-08-01T09:26:05;26.40;89.70
1205;DHT22;592;48.764;9.174;2022-08-01T09:28:32;26.60;89.40
1205;DHT22;592;48.764;9.174;2022-08-01T09:31:06;26.60;88.90
1205;DHT22;592;48.764;9.174;2022-08-01T09:33:51;26.60;88.90
1205;DHT22;592;48.764;9.174;2022-08-01T09:36:19;26.60;89.00
1205;DHT22;592;48.764;9.174;2022-08-01T09:38:47;26.50;88.80
1205;DHT22;592;48.764;9.174;2022-08-01T09:41:13;26.50;88.70
1205;DHT22;592;48.764;9.174;2022-08-01T09:43:48;26.50;88.40
1205;DHT22;592;48.764;9.174;2022-08-01T09:46:16;26.60;88.70
1205;DHT22;592;48.764;9.174;2022-08-01T09:48:55;26.50;88.50
1205;DHT22;592;48.764;9.174;2022-08-01T09:51:33;26.40;88.70
1205;DHT22;592;48.764;9.174;2022-08-01T09:54:02;26.50;89.80
1205;DHT22;592;48.764;9.174;2022-08-01T09:56:36;26.50;88.10
1205;DHT22;592;48.764;9.174;2022-08-01T09:59:03;26.50;89.30
1205;DHT22;592;48.764;9.174;2022-08-01T10:01:44;26.40;88.90
1205;DHT22;592;48.764;9.174;2022-08-01T10:04:12;26.20;89.70
1205;DHT22;592;48.764;9.174;2022-08-01T10:06:40;26.50;89.60
1205;DHT22;592;48.764;9.174;2022-08-01T10:09:08;26.80;89.00
1205;DHT22;592;48.764;9.174;2022-08-01T10:11:36;26.50;88.90
1205;DHT22;592;48.764;9.174;2022-08-01T10:14:05;26.30;88.80
1205;DHT22;592;48.764;9.174;2022-08-01T10:16:33;26.30;89.70
1205;DHT22;592;48.764;9.174;2022-08-01T10:19:03;26.40;89.20
1205;DHT22;592;48.764;9.174;2022-08-01T10:21:32;26.70;89.60
1205;DHT22;592;48.764;9.174;2022-08-01T10:24:00;26.60;87.50
1205;DHT22;592;48.764;9.174;2022-08-01T10:26:30;26.60;88.50
1205;DHT22;592;48.764;9.174;2022-08-01T10:28:59;26.60;88.20
1205;DHT22;592;48.764;9.174;2022-08-01T10:31:26;26.50;88.80
1205;DHT22;592;48.764;9.174;2022-08-01T10:33:57;26.40;88.20
1205;DHT22;592;48.764;9.174;2022-08-01T10:36:26;26.40;88.30
1205;DHT22;592;48.764;9.174;2022-08-01T10:38:54;26.50;88.00
1205;DHT22;592;48.764;9.174;2022-08-01T10:41:21;26.60;87.90
1205;DHT22;592;48.764;9.174;2022-08-01T10:43:48;26.80;87.10
1205;DHT22;592;48.764;9.174;2022-08-01T10:46:18;27.00;87.50
1205;DHT22;592;48.764;9.174;2022-08-01T10:48:49;26.50;86.90
1205;DHT22;592;48.764;9.174;2022-08-01T10:51:17;26.40;87.50
1205;DHT22;592;48.764;9.174;2022-08-01T10:53:48;26.30;88.10
1205;DHT22;592;48.764;9.174;2022-08-01T10:56:16;26.20;88.30
1205;DHT22;592;48.764;9.174;2022-08-01T10:58:44;26.20;88.00
1205;DHT22;592;48.764;9.174;2022-08-01T11:01:17;26.10;88.30
1205;DHT22;592;48.764;9.174;2022-08-01T11:04:03;26.10;88.20
1205;DHT22;592;48.764;9.174;2022-08-01T11:06:51;26.10;88.40
1205;DHT22;592;48.764;9.174;2022-08-01T11:09:28;26.40;88.20
1205;DHT22;592;48.764;9.174;2022-08-01T11:12:00;26.50;88.10
1205;DHT22;592;48.764;9.174;2022-08-01T11:14:29;26.60;86.40
1205;DHT22;592;48.764;9.174;2022-08-01T11:16:56;26.90;85.90
1205;DHT22;592;48.764;9.174;2022-08-01T11:19:22;27.00;86.50
1205;DHT22;592;48.764;9.174;2022-08-01T11:21:59;27.00;86.50
1205;DHT22;592;48.764;9.174;2022-08-01T11:25:00;26.80;86.30
1205;DHT22;592;48.764;9.174;2022-08-01T11:27:28;26.70;85.80
1205;DHT22;592;48.764;9.174;2022-08-01T11:30:24;26.40;85.80
1205;DHT22;592;48.764;9.174;2022-08-01T11:32:56;26.30;86.70
1205;DHT22;592;48.764;9.174;2022-08-01T11:35:24;26.20;86.90
1205;DHT22;592;48.764;9.174;2022-08-01T11:37:52;26.40;86.90
1205;DHT22;592;48.764;9.174;2022-08-01T11:40:23;26.40;86.70
1205;DHT22;592;48.764;9.174;2022-08-01T11:43:15;26.40;86.20
1205;DHT22;592;48.764;9.174;2022-08-01T11:45:48;26.50;86.80
1205;DHT22;592;48.764;9.174;2022-08-01T11:48:19;26.40;86.20
1205;DHT22;592;48.764;9.174;2022-08-01T11:50:46;26.70;87.10
1205;DHT22;592;48.764;9.174;2022-08-01T11:53:13;27.10;86.70
1205;DHT22;592;48.764;9.174;2022-08-01T11:55:46;27.20;85.80
1205;DHT22;592;48.764;9.174;2022-08-01T11:58:15;27.00;84.10
1205;DHT22;592;48.764;9.174;2022-08-01T12:00:50;27.00;84.90
1205;DHT22;592;48.764;9.174;2022-08-01T12:03:23;26.90;85.00
1205;DHT22;592;48.764;9.174;2022-08-01T12:05:50;26.70;84.90
1205;DHT22;592;48.764;9.174;2022-08-01T12:08:24;26.70;85.40
1205;DHT22;592;48.764;9.174;2022-08-01T12:10:53;26.60;84.80
1205;DHT22;592;48.764;9.174;2022-08-01T12:13:20;26.60;85.30
1205;DHT22;592;48.764;9.174;2022-08-01T12:15:48;26.70;84.70
1205;DHT22;592;48.764;9.174;2022-08-01T12:18:15;26.90;84.80
1205;DHT22;592;48.764;9.174;2022-08-01T12:20:44;27.10;83.70
1205;DHT22;592;48.764;9.174;2022-08-01T12:23:13;27.10;83.20
1205;DHT22;592;48.764;9.174;2022-08-01T12:25:40;27.10;84.00
1205;DHT22;592;48.764;9.174;2022-08-01T12:28:11;27.10;83.30
1205;DHT22;592;48.764;9.174;2022-08-01T12:30:39;27.00;83.10
1205;DHT22;592;48.764;9.174;2022-08-01T12:33:07;26.90;82.40
1205;DHT22;592;48.764;9.174;2022-08-01T12:35:36;26.80;83.20
1205;DHT22;592;48.764;9.174;2022-08-01T12:38:04;26.80;83.30
1205;DHT22;592;48.764;9.174;2022-08-01T12:40:33;26.90;83.30
1205;DHT22;592;48.764;9.174;2022-08-01T12:43:02;26.80;84.20
1205;DHT22;592;48.764;9.174;2022-08-01T12:45:33;26.90;84.50
1205;DHT22;592;48.764;9.174;2022-08-01T12:48:00;27.00;84.60
1205;DHT22;592;48.764;9.174;2022-08-01T12:50:29;27.10;84.30
1205;DHT22;592;48.764;9.174;2022-08-01T12:52:57;27.20;83.80
1205;DHT22;592;48.764;9.174;2022-08-01T12:55:25;27.10;84.00
1205;DHT22;592;48.764;9.174;2022-08-01T12:58:04;27.20;84.30
1205;DHT22;592;48.764;9.174;2022-08-01T13:00:33;27.30;82.80
1205;DHT22;592;48.764;9.174;2022-08-01T13:03:04;27.40;82.80
1205;DHT22;592;48.764;9.174;2022-08-01T13:05:41;27.50;81.90
1205;DHT22;592;48.764;9.174;2022-08-01T13:08:10;27.70;82.10
1205;DHT22;592;48.764;9.174;2022-08-01T13:10:37;28.20;81.40
1205;DHT22;592;48.764;9.174;2022-08-01T13:13:04;28.30;80.70
1205;DHT22;592;48.764;9.174;2022-08-01T13:15:34;28.10;81.60
1205;DHT22;592;48.764;9.174;2022-08-01T13:20:48;27.80;81.50
1205;DHT22;592;48.764;9.174;2022-08-01T13:23:16;27.70;82.10
1205;DHT22;592;48.764;9.174;2022-08-01T13:25:51;27.90;82.60
1205;DHT22;592;48.764;9.174;2022-08-01T13:28:19;27.80;82.70
1205;DHT22;592;48.764;9.174;2022-08-01T13:30:57;27.90;82.90
1205;DHT22;592;48.764;9.174;2022-08-01T13:33:25;28.00;82.40
1205;DHT22;592;48.764;9.174;2022-08-01T13:35:54;28.00;82.10
1205;DHT22;592;48.764;9.174;2022-08-01T13:38:21;28.00;82.80
1205;DHT22;592;48.764;9.174;2022-08-01T13:41:09;28.40;80.90
1205;DHT22;592;48.764;9.174;2022-08-01T13:43:36;28.50;81.00
1205;DHT22;592;48.764;9.174;2022-08-01T13:46:04;28.80;79.90
1205;DHT22;592;48.764;9.174;2022-08-01T13:48:31;28.70;80.20
1205;DHT22;592;48.764;9.174;2022-08-01T13:50:59;29.00;81.10
1205;DHT22;592;48.764;9.174;2022-08-01T13:53:26;29.60;79.10
1205;DHT22;592;48.764;9.174;2022-08-01T13:55:53;29.10;77.90
1205;DHT22;592;48.764;9.174;2022-08-01T13:58:19;29.60;79.00
1205;DHT22;592;48.764;9.174;2022-08-01T14:00:46;29.70;77.30
1205;DHT22;592;48.764;9.174;2022-08-01T14:03:14;30.00;77.60
1205;DHT22;592;48.764;9.174;2022-08-01T14:05:42;30.70;77.20
1205;DHT22;592;48.764;9.174;2022-08-01T14:08:09;30.60;75.20
1205;DHT22;592;48.764;9.174;2022-08-01T14:10:36;30.80;75.50
1205;DHT22;592;48.764;9.174;2022-08-01T14:13:03;31.70;73.50
1205;DHT22;592;48.764;9.174;2022-08-01T14:15:30;30.70;74.50
1205;DHT22;592;48.764;9.174;2022-08-01T14:17:57;29.70;76.30
1205;DHT22;592;48.764;9.174;2022-08-01T14:20:26;29.10;77.50
1205;DHT22;592;48.764;9.174;2022-08-01T14:22:52;29.40;77.30
1205;DHT22;592;48.764;9.174;2022-08-01T14:25:19;29.70;76.00
1205;DHT22;592;48.764;9.174;2022-08-01T14:27:46;29.20;76.90
1205;DHT22;592;48.764;9.174;2022-08-01T14:30:13;28.80;77.90
1205;DHT22;592;48.764;9.174;2022-08-01T14:32:40;28.70;78.50
1205;DHT22;592;48.764;9.174;2022-08-01T14:35:07;28.80;78.40
1205;DHT22;592;48.764;9.174;2022-08-01T14:37:35;28.70;78.60
1205;DHT22;592;48.764;9.174;2022-08-01T14:40:03;31.10;78.50
1205;DHT22;592;48.764;9.174;2022-08-01T14:42:30;32.50;72.00
1205;DHT22;592;48.764;9.174;2022-08-01T14:44:57;31.20;72.60
1205;DHT22;592;48.764;9.174;2022-08-01T14:47:24;30.50;75.10
1205;DHT22;592;48.764;9.174;2022-08-01T14:49:51;31.40;74.50
1205;DHT22;592;48.764;9.174;2022-08-01T14:52:18;31.10;72.90
1205;DHT22;592;48.764;9.174;2022-08-01T14:54:46;29.50;76.00
1205;DHT22;592;48.764;9.174;2022-08-01T14:57:13;28.80;78.10
1205;DHT22;592;48.764;9.174;2022-08-01T14:59:43;31.00;76.80
1205;DHT22;592;48.764;9.174;2022-08-01T15:02:10;30.90;74.70
1205;DHT22;592;48.764;9.174;2022-08-01T15:04:38;33.40;73.10
1205;DHT22;592;48.764;9.174;2022-08-01T15:07:04;34.70;69.10
1205;DHT22;592;48.764;9.174;2022-08-01T15:09:31;32.70;70.90
1205;DHT22;592;48.764;9.174;2022-08-01T15:11:59;34.10;70.00
1205;DHT22;592;48.764;9.174;2022-08-01T15:14:26;36.10;66.70
1205;DHT22;592;48.764;9.174;2022-08-01T15:17:10;35.00;65.10
1205;DHT22;592;48.764;9.174;2022-08-01T15:19:37;33.20;68.20
1205;DHT22;592;48.764;9.174;2022-08-01T15:22:04;34.50;69.20
1205;DHT22;592;48.764;9.174;2022-08-01T15:24:31;34.20;64.80
1205;DHT22;592;48.764;9.174;2022-08-01T15:26:59;31.60;69.50
1205;DHT22;592;48.764;9.174;2022-08-01T15:29:25;30.70;71.30
1205;DHT22;592;48.764;9.174;2022-08-01T15:31:52;30.10;73.30
1205;DHT22;592;48.764;9.174;2022-08-01T15:34:19;29.50;74.00
1205;DHT22;592;48.764;9.174;2022-08-01T15:36:45;29.50;74.60
1205;DHT22;592;48.764;9.174;2022-08-01T15:39:12;30.50;73.80
1205;DHT22;592;48.764;9.174;2022-08-01T15:41:40;29.80;73.20
1205;DHT22;592;48.764;9.174;2022-08-01T15:44:08;29.30;75.00
1205;DHT22;592;48.764;9.174;2022-08-01T15:46:35;29.10;75.10
1205;DHT22;592;48.764;9.174;2022-08-01T15:49:02;29.20;74.90
1205;DHT22;592;48.764;9.174;2022-08-01T15:51:29;29.10;74.70
1205;DHT22;592;48.764;9.174;2022-08-01T15:53:56;28.90;75.10
1205;DHT22;592;48.764;9.174;2022-08-01T15:56:23;28.60;75.00
1205;DHT22;592;48.764;9.174;2022-08-01T15:58:50;28.70;76.00
1205;DHT22;592;48.764;9.174;2022-08-01T16:01:18;28.70;75.60
1205;DHT22;592;48.764;9.174;2022-08-01T16:03:46;28.70;76.00
1205;DHT22;592;48.764;9.174;2022-08-01T16:06:13;28.70;76.20
1205;DHT22;592;48.764;9.174;2022-08-01T16:08:40;28.60;76.30
1205;DHT22;592;48.764;9.174;2022-08-01T16:11:07;28.30;76.10
1205;DHT22;592;48.764;9.174;2022-08-01T16:13:33;28.40;76.20
1205;DHT22;592;48.764;9.174;2022-08-01T16:16:00;28.50;76.20
1205;DHT22;592;48.764;9.174;2022-08-01T16:18:30;28.50;76.20
1205;DHT22;592;48.764;9.174;2022-08-01T16:20:57;28.70;76.00
1205;DHT22;592;48.764;9.174;2022-08-01T16:23:24;28.40;76.30
1205;DHT22;592;48.764;9.174;2022-08-01T16:25:51;28.50;76.90
1205;DHT22;592;48.764;9.174;2022-08-01T16:28:19;28.40;76.30
1205;DHT22;592;48.764;9.174;2022-08-01T16:30:46;28.50;76.60
1205;DHT22;592;48.764;9.174;2022-08-01T16:33:13;28.40;76.40
1205;DHT22;592;48.764;9.174;2022-08-01T16:35:41;27.90;77.30